createdAt,value
2023-03-21T00:02:35.569Z,26.48
2023-03-21T00:07:32.511Z,21.33
2023-03-21T00:12:25.903Z,20.70
2023-03-21T00:17:22.460Z,21.15
2023-03-21T00:22:16.086Z,22.30
2023-03-21T00:27:38.390Z,20.20
2023-03-21T00:32:24.890Z,23.90
2023-03-21T00:37:19.140Z,18.55
2023-03-21T00:42:13.816Z,19.83
2023-03-21T00:47:08.227Z,18.55
2023-03-21T00:52:14.685Z,20.25
2023-03-21T00:57:10.220Z,21.75
2023-03-21T01:02:07.476Z,24.90
2023-03-21T01:07:01.239Z,22.73
2023-03-21T01:11:56.509Z,28.95
2023-03-21T01:16:50.402Z,27.90
2023-03-21T01:21:48.076Z,23.65
2023-03-21T01:26:43.939Z,27.95
2023-03-21T01:31:37.260Z,33.17
2023-03-21T01:36:31.948Z,41.67
2023-03-21T01:41:44.298Z,35.17
2023-03-21T01:46:56.999Z,30.02
2023-03-21T01:52:12.804Z,25.90
2023-03-21T01:57:17.785Z,27.13
2023-03-21T02:02:20.879Z,28.98
2023-03-21T02:12:33.733Z,26.60
2023-03-21T02:17:36.967Z,27.83
2023-03-21T02:23:05.037Z,26.48
2023-03-21T02:28:09.546Z,60.72
2023-03-21T02:33:30.145Z,43.58
2023-03-21T02:38:30.481Z,42.13
2023-03-21T02:43:32.392Z,35.15
2023-03-21T02:48:48.136Z,35.03
2023-03-21T02:54:13.019Z,32.88
2023-03-21T02:59:08.248Z,30.77
2023-03-21T03:04:02.484Z,29.95
2023-03-21T03:09:16.064Z,30.08
2023-03-21T03:14:56.525Z,24.98
2023-03-21T03:20:24.116Z,28.35
2023-03-21T03:25:32.657Z,30.70
2023-03-21T03:30:42.251Z,31.20
2023-03-21T03:35:41.214Z,31.95
2023-03-21T03:40:42.373Z,33.55
2023-03-21T03:50:48.524Z,30.90
2023-03-21T03:55:48.710Z,30.40
2023-03-21T04:00:43.849Z,27.30
2023-03-21T04:05:37.308Z,28.55
2023-03-21T04:10:31.778Z,29.23
2023-03-21T04:15:28.386Z,29.13
2023-03-21T04:20:43.492Z,29.88
2023-03-21T04:25:44.656Z,24.65
2023-03-21T04:31:00.258Z,29.35
2023-03-21T04:35:59.085Z,26.75
2023-03-21T04:40:57.895Z,28.13
2023-03-21T04:45:53.554Z,31.33
2023-03-21T04:50:47.355Z,26.75
2023-03-21T04:55:40.686Z,28.25
2023-03-21T05:00:37.606Z,31.85
2023-03-21T05:05:33.850Z,34.08
2023-03-21T05:10:27.102Z,30.38
2023-03-21T05:15:23.066Z,28.27
2023-03-21T05:20:20.286Z,36.25
2023-03-21T05:25:18.184Z,28.33
2023-03-21T05:30:25.171Z,29.20
2023-03-21T05:35:24.495Z,31.60
2023-03-21T05:40:21.345Z,29.50
2023-03-21T05:45:15.405Z,29.83
2023-03-21T05:50:11.479Z,34.00
2023-03-21T05:55:07.613Z,34.20
2023-03-21T06:00:03.307Z,35.92
2023-03-21T06:05:09.084Z,34.83
2023-03-21T06:10:02.652Z,30.10
2023-03-21T06:14:58.862Z,30.00
2023-03-21T06:20:01.204Z,35.47
2023-03-21T06:25:10.359Z,30.00
2023-03-21T06:30:05.042Z,34.70
2023-03-21T06:35:05.903Z,46.22
2023-03-21T06:39:59.397Z,34.88
2023-03-21T06:44:52.707Z,37.88
2023-03-21T06:49:46.031Z,32.47
2023-03-21T06:54:41.525Z,31.60
2023-03-21T06:59:39.057Z,37.08
2023-03-21T07:05:01.142Z,28.85
2023-03-21T07:09:57.738Z,34.00
2023-03-21T07:14:54.327Z,35.65
2023-03-21T07:19:47.553Z,34.13
2023-03-21T07:24:43.479Z,38.85
2023-03-21T07:29:38.129Z,34.13
2023-03-21T07:34:33.903Z,32.15
2023-03-21T07:39:29.919Z,37.28
2023-03-21T07:44:23.411Z,34.47
2023-03-21T07:49:34.146Z,29.98
2023-03-21T07:54:28.815Z,29.40
2023-03-21T07:59:22.333Z,28.40
2023-03-21T08:04:18.604Z,28.70
2023-03-21T08:09:13.140Z,28.10
2023-03-21T08:14:06.289Z,28.45
2023-03-21T08:18:59.603Z,28.42
2023-03-21T08:23:55.386Z,26.88
2023-03-21T08:28:50.222Z,33.53
2023-03-21T08:33:43.529Z,27.35
2023-03-21T08:38:37.131Z,25.73
2023-03-21T08:43:30.553Z,25.63
2023-03-21T08:48:25.718Z,32.88
2023-03-21T08:53:22.266Z,30.55
2023-03-21T08:58:15.598Z,26.38
2023-03-21T09:03:11.215Z,25.08
2023-03-21T09:08:06.600Z,22.52
2023-03-21T09:12:59.926Z,25.98
2023-03-21T09:17:54.490Z,20.58
2023-03-21T09:22:48.977Z,22.33
2023-03-21T09:27:47.171Z,23.85
2023-03-21T09:32:43.007Z,23.80
2023-03-21T09:37:38.435Z,19.88
2023-03-21T09:42:41.797Z,18.70
2023-03-21T09:47:45.500Z,19.67
2023-03-21T09:52:48.230Z,19.38
2023-03-21T09:57:45.885Z,23.60
2023-03-21T10:02:45.677Z,17.13
2023-03-21T10:07:44.674Z,17.20
2023-03-21T10:12:38.000Z,20.60
2023-03-21T10:17:35.218Z,15.15
2023-03-21T10:22:29.725Z,20.70
2023-03-21T10:27:22.848Z,18.70
2023-03-21T10:32:19.457Z,19.63
2023-03-21T10:37:13.973Z,22.27
2023-03-21T10:42:18.668Z,20.63
2023-03-21T10:47:11.979Z,22.50
2023-03-21T10:52:08.559Z,24.08
2023-03-21T10:57:05.969Z,22.45
2023-03-21T11:02:00.604Z,21.83
2023-03-21T11:06:57.018Z,27.70
2023-03-21T11:11:55.932Z,20.20
2023-03-21T11:16:52.304Z,18.55
2023-03-21T11:21:47.351Z,19.05
2023-03-21T11:26:43.602Z,24.40
2023-03-21T11:31:41.303Z,17.90
2023-03-21T11:36:39.355Z,17.85
2023-03-21T11:41:35.718Z,22.90
2023-03-21T11:46:33.358Z,18.25
2023-03-21T11:51:34.849Z,20.63
2023-03-21T11:56:31.282Z,24.55
2023-03-21T12:01:33.496Z,19.00
2023-03-21T12:06:31.727Z,19.52
2023-03-21T12:11:37.353Z,22.80
2023-03-21T12:16:44.669Z,22.15
2023-03-21T12:21:48.101Z,24.25
2023-03-21T12:26:53.383Z,22.50
2023-03-21T12:31:59.355Z,23.65
2023-03-21T12:37:14.469Z,23.05
2023-03-21T12:42:25.718Z,25.33
2023-03-21T12:47:24.775Z,21.25
2023-03-21T12:52:21.594Z,22.55
2023-03-21T12:57:21.388Z,18.33
2023-03-21T13:02:27.934Z,17.80
2023-03-21T13:07:25.327Z,17.75
2023-03-21T13:12:29.828Z,18.13
2023-03-21T13:17:31.510Z,17.02
2023-03-21T13:22:29.391Z,15.93
2023-03-21T13:27:29.753Z,17.17
2023-03-21T13:32:30.906Z,17.40
2023-03-21T13:37:28.092Z,17.75
2023-03-21T13:42:31.910Z,18.90
2023-03-21T13:47:40.632Z,19.08
2023-03-21T13:52:33.755Z,17.25
2023-03-21T13:57:40.322Z,18.58
2023-03-21T14:02:39.652Z,16.40
2023-03-21T14:07:35.041Z,20.25
2023-03-21T14:12:30.525Z,19.25
2023-03-21T14:17:26.606Z,18.23
2023-03-21T14:22:21.340Z,14.55
2023-03-21T14:27:15.030Z,17.25
2023-03-21T14:32:19.118Z,19.13
2023-03-21T14:37:12.790Z,16.20
2023-03-21T14:42:09.415Z,16.00
2023-03-21T14:47:03.984Z,18.60
2023-03-21T14:52:00.149Z,18.08
2023-03-21T14:57:00.121Z,20.08
2023-03-21T15:01:56.016Z,22.20
2023-03-21T15:06:57.822Z,20.15
2023-03-21T15:11:53.617Z,20.83
2023-03-21T15:16:47.829Z,20.60
2023-03-21T15:21:56.200Z,20.73
2023-03-21T15:26:50.638Z,18.75
2023-03-21T15:31:45.774Z,21.55
2023-03-21T15:36:48.061Z,26.30
2023-03-21T15:41:43.154Z,23.60
2023-03-21T15:46:43.196Z,20.13
2023-03-21T15:51:42.679Z,23.38
2023-03-21T15:56:37.538Z,20.83
2023-03-21T16:01:35.018Z,25.85
2023-03-21T16:07:02.658Z,24.35
2023-03-21T16:12:02.778Z,21.23
2023-03-21T16:16:59.362Z,22.55
2023-03-21T16:21:53.524Z,22.25
2023-03-21T16:27:00.156Z,20.38
2023-03-21T16:32:00.806Z,25.77
2023-03-21T16:37:04.762Z,32.38
2023-03-21T16:42:01.484Z,25.10
2023-03-21T16:46:55.019Z,24.25
2023-03-21T16:51:49.701Z,25.10
2023-03-21T16:56:50.492Z,24.08
2023-03-21T17:01:52.164Z,124.60
2023-03-21T17:06:47.597Z,69.82
2023-03-21T17:11:51.723Z,38.97
2023-03-21T17:16:47.879Z,32.55
2023-03-21T17:21:41.573Z,29.17
2023-03-21T17:26:35.034Z,30.10
2023-03-21T17:31:47.574Z,27.35
2023-03-21T17:36:45.041Z,26.05
2023-03-21T17:41:38.499Z,29.40
2023-03-21T17:46:37.926Z,27.33
2023-03-21T17:51:33.312Z,25.30
2023-03-21T17:56:30.105Z,32.03
2023-03-21T18:01:24.218Z,28.08
2023-03-21T18:06:28.922Z,31.83
2023-03-21T18:11:25.844Z,32.63
2023-03-21T18:16:28.277Z,32.33
2023-03-21T18:21:38.093Z,33.85
2023-03-21T18:26:33.004Z,31.23
2023-03-21T18:31:31.482Z,29.65
2023-03-21T18:36:27.819Z,31.65
2023-03-21T18:41:24.888Z,28.92
2023-03-21T18:46:19.998Z,28.80
2023-03-21T18:51:13.504Z,28.70
2023-03-21T18:56:10.229Z,29.58
2023-03-21T19:01:07.023Z,31.27
2023-03-21T19:06:03.907Z,28.42
2023-03-21T19:11:00.277Z,38.92
2023-03-21T19:15:56.698Z,32.58
2023-03-21T19:20:53.614Z,30.73
2023-03-21T19:25:48.370Z,33.33
2023-03-21T19:30:49.849Z,34.80
2023-03-21T19:35:43.929Z,35.92
2023-03-21T19:40:40.020Z,39.35
2023-03-21T19:45:39.470Z,34.95
2023-03-21T19:50:57.998Z,31.48
2023-03-21T19:55:54.095Z,34.50
2023-03-21T20:00:49.397Z,33.20
2023-03-21T20:05:45.256Z,31.67
2023-03-21T20:10:38.928Z,31.98
2023-03-21T20:15:32.361Z,36.17
2023-03-21T20:20:28.093Z,27.20
2023-03-21T20:25:23.191Z,30.48
2023-03-21T20:30:19.024Z,28.67
2023-03-21T20:35:21.149Z,30.55
2023-03-21T20:40:26.674Z,24.98
2023-03-21T20:45:20.775Z,29.88
2023-03-21T20:50:15.765Z,29.48
2023-03-21T20:55:11.631Z,27.45
2023-03-21T21:00:13.786Z,31.88
2023-03-21T21:05:25.325Z,30.95
2023-03-21T21:10:22.453Z,29.45
2023-03-21T21:15:19.686Z,31.92
2023-03-21T21:20:20.663Z,33.13
2023-03-21T21:25:16.050Z,31.58
2023-03-21T21:30:20.373Z,32.80
2023-03-21T21:35:13.762Z,32.88
2023-03-21T21:40:13.017Z,35.92
2023-03-21T21:45:08.691Z,37.88
2023-03-21T21:50:03.480Z,37.67
2023-03-21T21:54:56.834Z,36.22
2023-03-21T21:59:54.281Z,37.40
2023-03-21T22:04:47.525Z,35.28
2023-03-21T22:09:42.438Z,35.92
2023-03-21T22:14:36.019Z,35.75
2023-03-21T22:19:32.616Z,36.95
2023-03-21T22:24:26.157Z,35.38
2023-03-21T22:29:20.896Z,40.60
2023-03-21T22:34:14.089Z,41.70
2023-03-21T22:39:07.430Z,47.35
2023-03-21T22:44:00.892Z,43.88
2023-03-21T22:48:55.707Z,40.38
2023-03-21T22:53:51.304Z,42.17
2023-03-21T22:58:44.501Z,40.35
2023-03-21T23:03:38.402Z,38.65
2023-03-21T23:08:32.965Z,40.25
2023-03-21T23:13:26.644Z,39.15
2023-03-21T23:18:19.912Z,37.10
2023-03-21T23:23:13.143Z,37.78
2023-03-21T23:28:08.337Z,34.13
2023-03-21T23:33:01.512Z,38.05
2023-03-21T23:37:54.614Z,36.78
2023-03-21T23:42:47.740Z,40.63
2023-03-21T23:47:42.337Z,37.60
2023-03-21T23:52:35.785Z,32.28
2023-03-21T23:57:29.010Z,31.08
